Time;durP1;ratioP1;P1;durP2;ratioP2;P2;SDS_P1;SDS_P2;PMS_P1;PMS_P2;Temp;Humidity;BMP_temperature;BMP_pressure;BME280_temperature;BME280_humidity;BME280_pressure;Samples;Min_cycle;Max_cycle;Signal;HPM_P1;HPM_P2
2023/08/21 00:01:48;;;;;;;16.75;2.60;;;22.30;94.20;;;;;;4067948;29;20063;-57
2023/08/21 00:03:50;;;;;;;9.48;1.88;;;22.30;94.10;;;;;;4067391;29;20059;-57
2023/08/21 00:05:53;;;;;;;6.22;1.75;;;22.30;94.20;;;;;;4067403;29;20048;-58
2023/08/21 00:07:56;;;;;;;6.53;1.77;;;22.20;94.20;;;;;;4067934;29;20052;-57
2023/08/21 00:09:58;;;;;;;10.02;1.98;;;22.20;94.20;;;;;;4068178;29;20060;-58
2023/08/21 00:12:00;;;;;;;5.47;1.65;;;22.20;94.20;;;;;;4067810;29;20052;-57
2023/08/21 00:14:02;;;;;;;14.43;2.20;;;22.20;94.30;;;;;;4067184;29;20052;-58
2023/08/21 00:16:04;;;;;;;9.52;2.13;;;22.20;94.30;;;;;;4068086;29;20060;-57
2023/08/21 00:18:07;;;;;;;8.77;1.90;;;22.10;94.30;;;;;;4067692;29;20052;-57
2023/08/21 00:20:10;;;;;;;7.57;1.95;;;22.10;94.30;;;;;;4068144;29;20044;-57
2023/08/21 00:22:12;;;;;;;5.93;1.80;;;22.00;94.40;;;;;;4068795;29;20078;-58
2023/08/21 00:24:16;;;;;;;5.05;1.70;;;22.00;94.40;;;;;;4070286;29;20079;-57
2023/08/21 00:26:18;;;;;;;7.57;2.13;;;22.00;94.40;;;;;;4071055;29;20052;-58
2023/08/21 00:28:20;;;;;;;9.38;2.00;;;22.00;94.40;;;;;;4070831;29;20417;-58
2023/08/21 00:30:22;;;;;;;8.10;1.80;;;21.90;94.50;;;;;;4070929;29;20044;-58
2023/08/21 00:32:24;;;;;;;8.88;2.08;;;21.90;94.40;;;;;;4070600;29;20052;-61
2023/08/21 00:34:26;;;;;;;9.55;2.13;;;21.90;94.60;;;;;;4069808;29;20052;-58
2023/08/21 00:36:28;;;;;;;9.80;2.00;;;21.90;94.50;;;;;;4070568;29;20076;-58
2023/08/21 00:38:30;;;;;;;6.93;1.80;;;21.90;94.50;;;;;;4070815;29;20052;-58
2023/08/21 00:40:33;;;;;;;13.52;2.00;;;21.80;94.50;;;;;;4070593;29;20552;-58
2023/08/21 00:42:35;;;;;;;7.55;1.77;;;21.80;94.50;;;;;;4070670;29;20052;-58
2023/08/21 00:44:38;;;;;;;9.23;2.08;;;21.80;94.50;;;;;;4070156;29;20079;-58
2023/08/21 00:46:40;;;;;;;8.60;1.90;;;21.80;94.50;;;;;;4070374;29;20387;-58
2023/08/21 00:48:43;;;;;;;8.73;1.98;;;21.70;94.60;;;;;;4070532;29;20054;-58
2023/08/21 00:50:45;;;;;;;7.82;1.98;;;21.70;94.60;;;;;;4070671;29;20419;-58
2023/08/21 00:52:48;;;;;;;5.15;1.98;;;21.80;94.60;;;;;;4070028;29;20486;-58
2023/08/21 00:54:50;;;;;;;7.45;1.75;;;21.70;94.90;;;;;;4070139;29;20123;-58
2023/08/21 00:56:54;;;;;;;5.72;1.88;;;21.70;94.70;;;;;;4070367;29;20127;-57
2023/08/21 00:58:56;;;;;;;13.00;1.92;;;21.70;94.60;;;;;;4070262;29;20048;-58
2023/08/21 01:00:59;;;;;;;13.73;2.28;;;21.70;94.60;;;;;;4069845;29;20052;-58
2023/08/21 01:03:01;;;;;;;7.13;1.70;;;21.60;94.50;;;;;;4069794;29;20132;-58
2023/08/21 01:05:04;;;;;;;6.38;2.20;;;21.60;94.50;;;;;;4070203;29;20048;-58
2023/08/21 01:07:09;;;;;;;6.07;1.70;;;21.60;94.50;;;;;;4070181;29;20055;-58
2023/08/21 01:09:17;;;;;;;7.57;1.45;;;21.60;94.60;;;;;;4070220;29;20536;-57
2023/08/21 01:11:26;;;;;;;7.78;1.85;;;21.50;94.60;;;;;;4070240;29;20059;-59
2023/08/21 01:13:43;;;;;;;8.25;2.13;;;21.50;94.60;;;;;;4069834;29;20047;-59
2023/08/21 01:15:46;;;;;;;5.28;1.70;;;21.60;94.70;;;;;;4069710;29;20131;-59
2023/08/21 01:17:49;;;;;;;9.52;2.25;;;21.60;94.80;;;;;;4070149;29;20048;-56
2023/08/21 01:19:52;;;;;;;6.70;1.75;;;21.50;94.70;;;;;;4070014;29;20570;-59
2023/08/21 01:21:55;;;;;;;4.05;1.50;;;21.60;94.90;;;;;;4070289;29;20083;-59
2023/08/21 01:23:58;;;;;;;6.32;1.75;;;21.50;94.80;;;;;;4069163;29;20418;-59
2023/08/21 01:26:01;;;;;;;7.55;2.10;;;21.60;94.80;;;;;;4070093;29;20056;-59
2023/08/21 01:28:04;;;;;;;9.10;2.13;;;21.60;94.70;;;;;;4070147;29;20123;-59
2023/08/21 01:30:07;;;;;;;6.93;2.00;;;21.60;95.00;;;;;;4069640;29;20055;-57
2023/08/21 01:32:15;;;;;;;6.85;1.88;;;21.60;94.90;;;;;;4069979;29;20048;-55
2023/08/21 01:34:17;;;;;;;8.68;1.95;;;21.60;95.10;;;;;;4068900;29;20148;-59
2023/08/21 01:36:20;;;;;;;9.68;2.00;;;21.50;95.20;;;;;;4068748;29;20058;-59
2023/08/21 01:38:22;;;;;;;8.82;2.28;;;21.50;95.30;;;;;;4069996;29;20052;-59
2023/08/21 01:40:26;;;;;;;7.20;2.13;;;21.50;95.40;;;;;;4069926;29;20056;-59
2023/08/21 01:42:28;;;;;;;5.55;1.60;;;21.50;95.30;;;;;;4070093;29;20079;-60
2023/08/21 01:44:30;;;;;;;6.22;1.73;;;21.50;95.30;;;;;;4069193;29;20044;-62
2023/08/21 01:46:32;;;;;;;4.93;1.60;;;21.50;95.40;;;;;;4070003;29;20044;-59
2023/08/21 01:48:34;;;;;;;8.50;1.98;;;21.50;95.40;;;;;;4069959;29;20060;-59
2023/08/21 01:50:36;;;;;;;10.23;1.90;;;21.50;95.40;;;;;;4069544;29;20078;-59
2023/08/21 01:52:38;;;;;;;4.97;1.42;;;21.50;95.40;;;;;;4069511;29;20052;-59
2023/08/21 01:54:42;;;;;;;8.88;2.05;;;21.50;95.40;;;;;;4068744;29;20610;-60
2023/08/21 01:56:45;;;;;;;8.45;2.10;;;21.40;95.40;;;;;;4069697;29;20108;-58
2023/08/21 01:58:47;;;;;;;6.07;1.52;;;21.40;95.30;;;;;;4069529;29;20052;-59
2023/08/21 02:00:49;;;;;;;11.23;1.85;;;21.40;95.50;;;;;;4069740;29;20119;-59
2023/08/21 02:02:51;;;;;;;10.32;2.38;;;21.40;95.50;;;;;;4069194;29;20048;-59
2023/08/21 02:04:54;;;;;;;9.27;1.80;;;21.30;95.60;;;;;;4069023;29;20531;-59
2023/08/21 02:06:56;;;;;;;6.22;1.83;;;21.30;95.60;;;;;;4069591;29;20062;-59
2023/08/21 02:08:58;;;;;;;8.68;1.88;;;21.30;95.50;;;;;;4069074;29;20066;-59
2023/08/21 02:11:01;;;;;;;5.97;1.60;;;21.30;95.60;;;;;;4069471;29;20505;-60
2023/08/21 02:13:04;;;;;;;11.82;1.98;;;21.30;95.70;;;;;;4068346;29;20068;-59
2023/08/21 02:15:07;;;;;;;8.80;2.00;;;21.30;95.50;;;;;;4069111;29;20055;-59
2023/08/21 02:17:09;;;;;;;7.63;2.08;;;21.30;95.60;;;;;;4069541;29;20052;-59
2023/08/21 02:19:11;;;;;;;10.18;2.00;;;21.30;95.80;;;;;;4069268;29;20084;-58
2023/08/21 02:21:13;;;;;;;10.52;1.70;;;21.40;95.50;;;;;;4069320;29;20052;-60
2023/08/21 02:23:16;;;;;;;8.13;1.85;;;21.30;95.60;;;;;;4069081;29;20437;-59
2023/08/21 02:25:18;;;;;;;9.88;2.05;;;21.30;95.50;;;;;;4069428;29;20104;-64
2023/08/21 02:27:20;;;;;;;6.78;1.50;;;21.40;95.70;;;;;;4069389;29;20052;-58
2023/08/21 02:29:23;;;;;;;8.02;2.10;;;21.40;95.70;;;;;;4069054;29;20048;-58
2023/08/21 02:31:25;;;;;;;5.40;1.38;;;21.30;95.80;;;;;;4069401;29;20127;-56
2023/08/21 02:33:27;;;;;;;5.10;1.80;;;21.30;96.00;;;;;;4068520;29;20418;-56
2023/08/21 02:35:29;;;;;;;7.80;1.63;;;21.30;96.30;;;;;;4068904;29;20048;-64
2023/08/21 02:37:31;;;;;;;8.13;1.88;;;21.30;95.80;;;;;;4069154;29;20055;-56
2023/08/21 02:39:33;;;;;;;8.40;2.08;;;21.30;95.80;;;;;;4069334;29;20087;-57
2023/08/21 02:41:35;;;;;;;11.05;2.20;;;21.30;95.60;;;;;;4068937;29;20123;-57
2023/08/21 02:43:37;;;;;;;7.95;2.25;;;21.40;95.60;;;;;;4067783;29;20052;-56
2023/08/21 02:45:41;;;;;;;8.10;2.00;;;21.30;95.40;;;;;;4068437;29;20048;-57
2023/08/21 02:47:43;;;;;;;8.23;1.88;;;21.30;95.50;;;;;;4069169;29;20055;-57
2023/08/21 02:49:45;;;;;;;9.48;2.13;;;21.30;95.40;;;;;;4068536;29;20115;-57
2023/08/21 02:51:47;;;;;;;11.50;2.70;;;21.30;95.50;;;;;;4068935;29;20383;-58
2023/08/21 02:53:49;;;;;;;7.03;2.90;;;21.20;95.70;;;;;;4068362;29;20145;-57
2023/08/21 02:55:51;;;;;;;7.25;2.92;;;21.20;95.60;;;;;;4067504;29;20507;-56
2023/08/21 02:57:53;;;;;;;8.45;2.92;;;21.20;95.60;;;;;;4069329;29;20075;-57
2023/08/21 02:59:56;;;;;;;9.23;3.22;;;21.20;96.00;;;;;;4069208;29;20148;-56
2023/08/21 03:01:59;;;;;;;9.60;2.83;;;21.10;95.70;;;;;;4068992;29;20058;-62
2023/08/21 03:04:01;;;;;;;10.65;3.03;;;21.20;95.70;;;;;;4068509;29;20048;-61
2023/08/21 03:06:03;;;;;;;11.38;2.70;;;21.20;95.60;;;;;;4068640;29;20430;-62
2023/08/21 03:08:05;;;;;;;6.65;1.92;;;21.20;95.90;;;;;;4068686;29;20056;-58
2023/08/21 03:10:08;;;;;;;11.98;2.53;;;21.10;96.20;;;;;;4068752;29;20052;-59
2023/08/21 03:12:10;;;;;;;11.02;2.58;;;21.10;95.80;;;;;;4068029;29;20107;-59
2023/08/21 03:14:12;;;;;;;8.27;2.00;;;21.20;95.70;;;;;;4067660;29;20075;-60
2023/08/21 03:16:14;;;;;;;8.55;2.08;;;21.10;95.70;;;;;;4068407;29;20514;-60
2023/08/21 03:18:18;;;;;;;9.13;2.58;;;21.10;95.70;;;;;;4068589;29;20077;-60
2023/08/21 03:20:20;;;;;;;9.77;2.20;;;21.10;95.60;;;;;;4068364;29;20044;-57
2023/08/21 03:22:22;;;;;;;8.98;2.28;;;21.00;95.70;;;;;;4068557;29;20048;-62
2023/08/21 03:24:25;;;;;;;7.38;2.00;;;21.00;95.70;;;;;;4067649;29;20059;-56
2023/08/21 03:26:27;;;;;;;6.38;2.13;;;21.00;95.80;;;;;;4068076;29;20082;-56
2023/08/21 03:28:29;;;;;;;9.63;2.38;;;21.00;95.90;;;;;;4068833;29;20072;-58
2023/08/21 03:30:31;;;;;;;9.48;1.95;;;21.00;95.80;;;;;;4068486;29;20075;-59
2023/08/21 03:32:33;;;;;;;7.95;1.65;;;21.00;95.80;;;;;;4068501;29;20139;-59
2023/08/21 03:34:36;;;;;;;8.88;2.35;;;20.90;95.80;;;;;;4067415;29;20052;-59
2023/08/21 03:36:38;;;;;;;8.90;2.08;;;21.00;95.80;;;;;;4068043;29;20051;-59
2023/08/21 03:38:41;;;;;;;9.07;1.63;;;21.00;95.80;;;;;;4068087;29;20056;-59
2023/08/21 03:40:43;;;;;;;10.18;2.25;;;21.00;95.80;;;;;;4068091;29;20404;-58
2023/08/21 03:42:45;;;;;;;12.18;2.38;;;21.00;95.70;;;;;;4068387;29;20059;-60
2023/08/21 03:44:49;;;;;;;9.15;1.80;;;20.90;96.10;;;;;;4067618;29;20054;-59
2023/08/21 03:46:51;;;;;;;7.15;2.03;;;21.00;96.00;;;;;;4068336;29;20284;-58
2023/08/21 03:48:53;;;;;;;10.77;2.08;;;20.90;95.80;;;;;;4068395;29;20131;-59
2023/08/21 03:50:57;;;;;;;6.72;2.05;;;21.00;95.80;;;;;;4068170;29;20060;-58
2023/08/21 03:52:59;;;;;;;5.45;1.52;;;21.00;95.90;;;;;;4068205;29;20044;-59
2023/08/21 03:55:01;;;;;;;5.90;1.58;;;21.00;96.60;;;;;;4067300;29;20052;-60
2023/08/21 03:57:03;;;;;;;5.72;1.70;;;20.90;96.60;;;;;;4069241;29;20075;-60
2023/08/21 03:59:05;;;;;;;3.97;1.42;;;21.00;96.30;;;;;;4071545;29;20084;-60
2023/08/21 04:01:07;;;;;;;6.85;1.90;;;20.90;96.30;;;;;;4071566;29;20138;-59
2023/08/21 04:03:09;;;;;;;3.65;1.45;;;20.90;96.40;;;;;;4071281;29;20087;-59
2023/08/21 04:05:12;;;;;;;7.35;1.83;;;20.90;96.40;;;;;;4070525;29;20483;-59
2023/08/21 04:07:15;;;;;;;9.75;2.30;;;20.90;96.50;;;;;;4071203;29;20044;-60
2023/08/21 04:09:17;;;;;;;6.28;1.95;;;20.90;96.40;;;;;;4070632;29;20108;-60
2023/08/21 04:11:19;;;;;;;5.00;1.55;;;20.80;95.80;;;;;;4071112;29;20071;-60
2023/08/21 04:13:21;;;;;;;6.32;1.77;;;20.80;96.50;;;;;;4070933;29;20052;-59
2023/08/21 04:15:23;;;;;;;9.27;2.25;;;20.90;96.30;;;;;;4070999;29;20051;-60
2023/08/21 04:17:25;;;;;;;6.13;1.63;;;20.90;96.50;;;;;;4071099;29;20103;-60
2023/08/21 04:19:32;;;;;;;7.55;2.08;;;20.80;96.40;;;;;;4069849;29;20100;-60
2023/08/21 04:21:34;;;;;;;7.63;2.17;;;20.80;96.40;;;;;;4069870;29;20052;-59
2023/08/21 04:23:37;;;;;;;11.18;2.58;;;20.80;96.40;;;;;;4069982;29;20123;-60
2023/08/21 04:25:40;;;;;;;7.43;2.10;;;20.80;96.40;;;;;;4070997;29;20051;-59
2023/08/21 04:27:42;;;;;;;13.90;2.55;;;20.80;96.20;;;;;;4071090;29;20052;-58
2023/08/21 04:29:44;;;;;;;13.63;2.45;;;20.80;96.30;;;;;;4070974;29;20048;-59
2023/08/21 04:31:46;;;;;;;9.82;2.17;;;20.80;96.30;;;;;;4070985;29;20135;-59
2023/08/21 04:33:48;;;;;;;9.80;2.75;;;20.70;96.40;;;;;;4070617;29;20116;-59
2023/08/21 04:35:50;;;;;;;7.35;1.90;;;20.80;96.40;;;;;;4070668;29;20048;-59
2023/08/21 04:37:52;;;;;;;11.27;2.55;;;20.70;96.60;;;;;;4070760;29;20100;-57
2023/08/21 04:39:56;;;;;;;9.70;1.67;;;20.70;96.50;;;;;;4070386;29;20099;-57
2023/08/21 04:41:58;;;;;;;10.52;2.13;;;20.70;96.60;;;;;;4070990;29;20422;-56
2023/08/21 04:44:01;;;;;;;9.25;2.00;;;20.70;96.40;;;;;;4070850;29;20494;-57
2023/08/21 04:46:05;;;;;;;5.60;1.70;;;20.70;96.60;;;;;;4071315;29;20080;-60
2023/08/21 04:48:07;;;;;;;6.88;2.00;;;20.70;96.80;;;;;;4071773;29;20383;-61
2023/08/21 04:50:09;;;;;;;10.20;2.10;;;20.70;96.90;;;;;;4071030;29;20048;-58
2023/08/21 04:52:11;;;;;;;12.50;2.50;;;20.70;96.80;;;;;;4071577;29;20052;-59
2023/08/21 04:54:13;;;;;;;8.40;2.13;;;20.70;96.90;;;;;;4070447;29;20055;-58
2023/08/21 04:56:16;;;;;;;6.97;2.17;;;20.70;97.00;;;;;;4069980;29;20052;-57
2023/08/21 04:58:19;;;;;;;10.43;2.50;;;20.70;96.60;;;;;;4070775;29;20056;-61
2023/08/21 05:00:21;;;;;;;8.52;1.90;;;20.60;97.00;;;;;;4071065;29;20048;-63
2023/08/21 05:02:23;;;;;;;7.93;2.10;;;20.60;96.40;;;;;;4071083;29;20104;-58
2023/08/21 05:04:25;;;;;;;6.30;1.65;;;20.60;96.50;;;;;;4069851;29;20075;-59
2023/08/21 05:06:27;;;;;;;8.15;2.15;;;20.60;96.50;;;;;;4070414;29;20063;-57
2023/08/21 05:08:29;;;;;;;8.15;2.00;;;20.60;96.30;;;;;;4069227;29;20048;-59
2023/08/21 05:10:31;;;;;;;6.55;2.05;;;20.60;96.40;;;;;;4070398;29;20498;-59
2023/08/21 05:12:35;;;;;;;6.05;2.28;;;20.60;96.30;;;;;;4070223;29;20056;-61
2023/08/21 05:14:37;;;;;;;9.15;2.15;;;20.60;96.50;;;;;;4069569;29;20071;-61
2023/08/21 05:16:39;;;;;;;10.57;2.20;;;20.60;96.30;;;;;;4070334;29;20064;-59
2023/08/21 05:18:41;;;;;;;5.50;1.67;;;20.60;96.60;;;;;;4070112;29;20058;-59
2023/08/21 05:20:44;;;;;;;13.68;2.50;;;20.60;96.20;;;;;;4070356;29;20056;-59
2023/08/21 05:22:46;;;;;;;7.45;1.70;;;20.60;96.40;;;;;;4069630;29;20455;-59
2023/08/21 05:24:48;;;;;;;15.32;2.30;;;20.60;96.30;;;;;;4069519;29;20118;-59
2023/08/21 05:26:50;;;;;;;8.90;2.40;;;20.60;96.20;;;;;;4070004;29;20051;-59
2023/08/21 05:28:53;;;;;;;11.63;2.30;;;20.60;96.40;;;;;;4070351;29;20123;-59
2023/08/21 05:30:57;;;;;;;9.63;1.63;;;20.60;96.30;;;;;;4070185;29;20056;-59
2023/08/21 05:32:59;;;;;;;11.85;2.50;;;20.70;96.70;;;;;;4069989;29;20052;-64
2023/08/21 05:35:01;;;;;;;9.07;2.08;;;20.60;96.60;;;;;;4069342;29;20048;-59
2023/08/21 05:37:03;;;;;;;11.10;2.50;;;20.60;96.80;;;;;;4069561;29;20055;-59
2023/08/21 05:39:05;;;;;;;10.98;2.42;;;20.60;96.80;;;;;;4070088;29;20051;-59
2023/08/21 05:41:08;;;;;;;11.57;2.20;;;20.60;96.90;;;;;;4069992;29;20048;-59
2023/08/21 05:43:10;;;;;;;8.65;2.10;;;20.60;96.90;;;;;;4069684;29;20074;-58
2023/08/21 05:45:13;;;;;;;9.10;1.92;;;20.60;96.40;;;;;;4069151;29;20127;-59
2023/08/21 05:47:15;;;;;;;10.90;2.25;;;20.60;96.40;;;;;;4069714;29;20040;-59
2023/08/21 05:49:18;;;;;;;8.15;2.25;;;20.60;96.40;;;;;;4069678;29;20048;-64
2023/08/21 05:51:20;;;;;;;12.05;2.10;;;20.70;96.60;;;;;;4069514;29;20055;-61
2023/08/21 05:53:22;;;;;;;6.07;2.08;;;20.70;96.30;;;;;;4069822;29;20118;-62
2023/08/21 05:55:24;;;;;;;8.57;1.88;;;20.60;96.40;;;;;;4069106;29;20048;-61
2023/08/21 05:57:26;;;;;;;8.35;2.08;;;20.70;96.90;;;;;;4068329;29;20051;-61
2023/08/21 05:59:31;;;;;;;8.88;2.97;;;20.70;96.70;;;;;;4069377;29;20087;-60
2023/08/21 06:01:34;;;;;;;10.68;2.13;;;20.70;96.50;;;;;;4069769;29;20044;-59
2023/08/21 06:03:37;;;;;;;5.32;1.83;;;20.70;96.20;;;;;;4069647;29;20091;-60
2023/08/21 06:05:39;;;;;;;9.88;2.20;;;20.70;96.60;;;;;;4068828;29;20048;-59
2023/08/21 06:07:41;;;;;;;6.95;1.95;;;20.70;96.40;;;;;;4069413;29;20052;-59
2023/08/21 06:09:44;;;;;;;5.35;1.85;;;20.70;96.00;;;;;;4069529;29;20062;-58
2023/08/21 06:11:46;;;;;;;7.32;1.80;;;20.70;96.00;;;;;;4069298;29;20080;-58
2023/08/21 06:13:48;;;;;;;7.05;1.73;;;20.80;96.10;;;;;;4069039;29;20048;-66
2023/08/21 06:15:50;;;;;;;11.82;2.00;;;20.90;95.60;;;;;;4067961;29;20477;-59
2023/08/21 06:17:53;;;;;;;12.68;2.50;;;20.80;95.80;;;;;;4069286;29;20052;-58
2023/08/21 06:19:55;;;;;;;8.55;1.70;;;20.80;96.00;;;;;;4068342;29;20044;-58
2023/08/21 06:21:58;;;;;;;7.55;1.95;;;20.90;95.30;;;;;;4069466;29;20430;-58
2023/08/21 06:24:00;;;;;;;8.63;1.77;;;20.90;95.60;;;;;;4068589;29;20044;-58
2023/08/21 06:26:02;;;;;;;8.55;2.10;;;20.90;95.70;;;;;;4069109;29;20044;-58
2023/08/21 06:28:04;;;;;;;6.90;1.40;;;20.90;95.90;;;;;;4069596;29;20052;-67
2023/08/21 06:30:07;;;;;;;7.35;2.13;;;20.90;95.50;;;;;;4068624;29;20052;-57
2023/08/21 06:32:09;;;;;;;6.45;1.83;;;20.80;94.90;;;;;;4067970;29;20059;-59
2023/08/21 06:34:13;;;;;;;9.45;1.50;;;20.80;95.10;;;;;;4067912;29;20309;-60
2023/08/21 06:36:15;;;;;;;9.90;1.90;;;20.80;95.00;;;;;;4068764;29;20079;-59
2023/08/21 06:38:17;;;;;;;11.18;1.90;;;20.80;95.10;;;;;;4069072;29;20123;-57
2023/08/21 06:40:19;;;;;;;8.50;1.63;;;20.90;95.10;;;;;;4069072;29;20135;-58
2023/08/21 06:42:21;;;;;;;7.00;1.50;;;20.90;95.30;;;;;;4068887;29;20051;-59
2023/08/21 06:44:23;;;;;;;8.80;1.77;;;20.90;94.60;;;;;;4068415;29;20052;-58
2023/08/21 06:46:26;;;;;;;16.38;2.30;;;20.90;94.60;;;;;;4069020;29;20063;-56
2023/08/21 06:48:28;;;;;;;8.70;2.78;;;20.80;94.70;;;;;;4068980;29;20057;-59
2023/08/21 06:50:32;;;;;;;6.55;1.75;;;20.90;94.70;;;;;;4068949;29;20048;-59
2023/08/21 06:52:34;;;;;;;7.90;1.58;;;20.90;95.20;;;;;;4068813;29;20048;-59
2023/08/21 06:54:36;;;;;;;13.48;2.17;;;20.90;95.00;;;;;;4068123;29;20054;-59
2023/08/21 06:56:38;;;;;;;9.40;2.72;;;21.00;94.90;;;;;;4068806;29;20087;-59
2023/08/21 06:58:40;;;;;;;13.48;2.67;;;21.00;94.90;;;;;;4068780;29;20052;-59
2023/08/21 07:00:42;;;;;;;13.90;2.20;;;21.00;94.80;;;;;;4068894;29;20521;-58
2023/08/21 07:02:44;;;;;;;8.75;1.95;;;21.00;94.50;;;;;;4068512;29;20486;-61
2023/08/21 07:04:46;;;;;;;7.47;1.73;;;21.00;94.30;;;;;;4067683;29;20054;-61
2023/08/21 07:06:50;;;;;;;8.43;1.70;;;20.90;94.50;;;;;;4068798;29;20056;-61
2023/08/21 07:08:52;;;;;;;12.02;2.55;;;20.90;94.60;;;;;;4068623;29;20055;-61
2023/08/21 07:10:54;;;;;;;6.88;1.83;;;21.00;94.70;;;;;;4068719;29;20052;-61
2023/08/21 07:12:56;;;;;;;10.15;1.90;;;20.90;94.70;;;;;;4068235;29;20059;-61
2023/08/21 07:14:58;;;;;;;10.82;1.80;;;20.90;94.70;;;;;;4067711;29;20048;-61
2023/08/21 07:17:00;;;;;;;13.05;1.95;;;21.00;94.60;;;;;;4068374;29;20066;-61
2023/08/21 07:19:02;;;;;;;11.60;1.90;;;21.00;94.70;;;;;;4068230;29;20059;-58
2023/08/21 07:21:04;;;;;;;10.65;1.80;;;21.00;95.00;;;;;;4068317;29;20482;-58
2023/08/21 07:23:25;;;;;;;5.75;1.60;;;21.10;94.80;;;;;;4068346;29;20048;-57
2023/08/21 07:25:28;;;;;;;7.53;2.03;;;21.10;94.90;;;;;;4067853;29;20127;-59
2023/08/21 07:27:30;;;;;;;7.00;1.83;;;21.10;94.60;;;;;;4068184;29;20071;-59
2023/08/21 07:29:32;;;;;;;9.98;1.70;;;21.20;94.50;;;;;;4068419;29;20477;-58
2023/08/21 07:31:34;;;;;;;12.38;1.95;;;21.20;94.40;;;;;;4068105;29;20048;-59
2023/08/21 07:33:37;;;;;;;11.20;1.60;;;21.20;94.30;;;;;;4067895;29;20048;-61
2023/08/21 07:35:39;;;;;;;9.68;1.63;;;21.30;94.30;;;;;;4068039;29;20414;-62
2023/08/21 07:37:43;;;;;;;10.50;1.75;;;21.40;94.20;;;;;;4068359;29;20048;-59
2023/08/21 07:39:47;;;;;;;10.10;1.92;;;21.40;94.30;;;;;;4068257;29;20075;-58
2023/08/21 07:41:49;;;;;;;7.90;2.50;;;21.60;94.10;;;;;;4068432;29;20052;-59
2023/08/21 07:43:51;;;;;;;10.80;2.45;;;21.60;94.00;;;;;;4067993;29;20052;-58
2023/08/21 07:45:53;;;;;;;12.65;3.33;;;21.70;93.90;;;;;;4067517;29;20054;-59
2023/08/21 07:47:55;;;;;;;11.25;2.22;;;21.80;93.90;;;;;;4067968;29;20062;-59
2023/08/21 07:50:16;;;;;;;12.02;3.25;;;21.90;93.90;;;;;;4068238;29;20052;-59
2023/08/21 07:52:18;;;;;;;11.52;2.55;;;22.00;93.80;;;;;;4068204;29;20161;-59
2023/08/21 07:54:20;;;;;;;14.63;2.30;;;22.10;93.60;;;;;;4067743;29;20052;-58
2023/08/21 07:56:24;;;;;;;17.52;2.35;;;22.10;93.80;;;;;;4068135;29;20055;-58
2023/08/21 07:58:26;;;;;;;6.90;1.67;;;22.20;93.80;;;;;;4067843;29;20058;-58
2023/08/21 08:00:28;;;;;;;11.18;1.95;;;22.30;93.70;;;;;;4068062;29;20056;-59
2023/08/21 08:02:30;;;;;;;6.40;1.85;;;22.40;93.70;;;;;;4067889;29;20048;-59
2023/08/21 08:04:32;;;;;;;7.97;1.70;;;22.40;93.30;;;;;;4067398;29;20127;-59
2023/08/21 08:06:35;;;;;;;8.18;2.03;;;22.50;93.40;;;;;;4067916;29;20052;-58
2023/08/21 08:08:37;;;;;;;8.35;1.80;;;22.50;93.20;;;;;;4068223;29;20072;-59
2023/08/21 08:10:39;;;;;;;11.07;2.28;;;22.50;93.00;;;;;;4068199;29;20054;-58
2023/08/21 08:12:44;;;;;;;11.95;2.03;;;22.50;93.20;;;;;;4067662;29;20048;-57
2023/08/21 08:14:46;;;;;;;5.10;1.67;;;22.60;93.00;;;;;;4067363;29;20052;-56
2023/08/21 08:16:48;;;;;;;6.75;1.30;;;22.60;93.00;;;;;;4067660;29;20108;-57
2023/08/21 08:18:50;;;;;;;7.18;1.60;;;22.80;92.90;;;;;;4067869;29;20044;-58
2023/08/21 08:20:52;;;;;;;8.75;1.50;;;22.80;93.00;;;;;;4068074;29;20414;-56
2023/08/21 08:22:54;;;;;;;9.88;2.30;;;22.90;93.10;;;;;;4067883;29;20123;-58
2023/08/21 08:24:57;;;;;;;10.48;2.33;;;22.90;93.00;;;;;;4067353;29;20059;-58
2023/08/21 08:26:58;;;;;;;17.25;2.55;;;23.00;93.00;;;;;;4067922;29;20135;-58
2023/08/21 08:29:02;;;;;;;20.52;3.80;;;23.10;92.70;;;;;;4067987;29;20048;-57
2023/08/21 08:31:04;;;;;;;10.48;1.85;;;23.10;92.80;;;;;;4067662;29;20044;-57
2023/08/21 08:33:06;;;;;;;11.25;1.98;;;23.10;92.60;;;;;;4067948;29;20052;-59
2023/08/21 08:35:09;;;;;;;3.70;1.20;;;23.10;92.70;;;;;;4065998;29;20619;-58
2023/08/21 08:37:11;;;;;;;10.30;2.53;;;23.10;93.10;;;;;;4067743;29;20123;-57
2023/08/21 08:39:13;;;;;;;12.32;2.25;;;23.30;92.80;;;;;;4067994;29;20127;-57
2023/08/21 08:41:25;;;;;;;12.23;2.58;;;23.40;91.90;;;;;;4067886;29;20052;-58
2023/08/21 08:43:28;;;;;;;8.23;1.92;;;23.30;92.10;;;;;;4069074;29;20090;-58
2023/08/21 08:45:34;;;;;;;10.20;2.00;;;23.20;92.00;;;;;;4069883;29;20048;-57
2023/08/21 08:47:36;;;;;;;17.33;2.30;;;23.30;92.10;;;;;;4070871;29;20058;-58
2023/08/21 08:49:38;;;;;;;5.47;1.40;;;23.30;92.30;;;;;;4070711;29;20049;-58
2023/08/21 08:51:42;;;;;;;8.55;1.95;;;23.40;92.60;;;;;;4070493;29;20044;-57
2023/08/21 08:53:44;;;;;;;9.18;2.35;;;23.50;92.20;;;;;;4070780;29;20064;-58
2023/08/21 08:55:48;;;;;;;8.85;2.20;;;23.60;92.20;;;;;;4070102;29;20087;-59
2023/08/21 08:57:51;;;;;;;16.60;2.05;;;23.60;92.10;;;;;;4069342;29;20054;-59
2023/08/21 08:59:53;;;;;;;14.23;2.58;;;23.70;92.10;;;;;;4070129;29;20048;-59
2023/08/21 09:01:56;;;;;;;7.95;2.30;;;23.70;92.20;;;;;;4070351;29;20123;-60
2023/08/21 09:03:59;;;;;;;9.10;2.05;;;23.80;92.30;;;;;;4070332;29;20052;-59
2023/08/21 09:06:01;;;;;;;10.18;1.77;;;23.90;92.00;;;;;;4069915;29;20045;-58
2023/08/21 09:08:08;;;;;;;6.55;1.80;;;24.00;92.00;;;;;;4070498;29;20052;-58
2023/08/21 09:10:19;;;;;;;11.20;1.73;;;24.00;91.80;;;;;;4070292;29;20104;-58
2023/08/21 09:12:22;;;;;;;6.85;1.52;;;24.00;91.80;;;;;;4070196;29;20052;-58
2023/08/21 09:14:27;;;;;;;6.68;1.38;;;24.10;91.80;;;;;;4069439;29;20044;-58
2023/08/21 09:16:30;;;;;;;20.85;5.97;;;24.20;91.80;;;;;;4070325;29;20056;-57
2023/08/21 09:18:34;;;;;;;6.35;1.70;;;24.20;91.50;;;;;;4070428;29;20076;-58
2023/08/21 09:20:39;;;;;;;11.18;2.30;;;24.10;91.40;;;;;;4070190;29;20417;-57
2023/08/21 09:22:42;;;;;;;6.97;1.85;;;24.10;91.30;;;;;;4070029;29;20048;-58
2023/08/21 09:25:01;;;;;;;5.82;1.42;;;24.10;91.30;;;;;;4069498;29;20075;-58
2023/08/21 09:27:04;;;;;;;9.00;2.30;;;24.20;91.30;;;;;;4070094;29;20131;-57
2023/08/21 09:29:06;;;;;;;13.90;2.85;;;24.20;91.30;;;;;;4070187;29;20451;-58
2023/08/21 09:31:10;;;;;;;7.85;1.95;;;24.30;91.30;;;;;;4070049;29;20051;-57
2023/08/21 09:33:12;;;;;;;9.40;1.73;;;24.30;91.40;;;;;;4070038;29;20616;-58
2023/08/21 09:35:17;;;;;;;5.40;1.77;;;24.30;91.30;;;;;;4069571;29;20052;-58
2023/08/21 09:37:19;;;;;;;14.40;1.65;;;24.30;91.50;;;;;;4070190;29;20426;-57
2023/08/21 09:39:22;;;;;;;10.07;2.15;;;24.40;91.30;;;;;;4069972;29;20063;-58
2023/08/21 09:41:25;;;;;;;6.97;2.17;;;24.40;91.30;;;;;;4070376;29;20131;-55
2023/08/21 09:43:27;;;;;;;7.57;2.22;;;24.50;91.30;;;;;;4070109;29;20071;-55
2023/08/21 09:45:30;;;;;;;6.13;1.90;;;24.50;91.20;;;;;;4069354;29;20048;-55
2023/08/21 09:47:33;;;;;;;10.02;1.75;;;24.60;91.00;;;;;;4070021;29;20075;-55
2023/08/21 09:49:37;;;;;;;6.20;1.70;;;24.60;90.90;;;;;;4070088;29;20055;-55
2023/08/21 09:51:41;;;;;;;9.02;2.25;;;24.50;90.90;;;;;;4069822;29;20059;-58
2023/08/21 09:53:43;;;;;;;7.30;1.85;;;24.60;91.00;;;;;;4069920;29;20048;-56
2023/08/21 09:55:46;;;;;;;4.47;1.92;;;24.70;90.90;;;;;;4068349;29;20059;-57
2023/08/21 09:57:58;;;;;;;8.07;1.80;;;24.70;91.00;;;;;;4069306;29;20052;-58
2023/08/21 10:00:13;;;;;;;7.95;2.28;;;24.70;90.80;;;;;;4069819;29;20062;-57
2023/08/21 10:02:15;;;;;;;;;;;24.60;90.80;;;;;;4069908;29;20044;-58
2023/08/21 10:04:18;;;;;;;7.18;2.10;;;24.60;91.00;;;;;;4069603;29;19923;-58
2023/08/21 10:06:20;;;;;;;9.48;2.58;;;24.70;91.10;;;;;;4068983;29;20052;-58
2023/08/21 10:08:27;;;;;;;7.00;1.92;;;24.90;91.10;;;;;;4069389;29;20045;-58
2023/08/21 10:10:30;;;;;;;9.40;2.50;;;24.80;90.70;;;;;;4069676;29;20068;-57
2023/08/21 10:12:33;;;;;;;4.85;1.77;;;24.80;90.90;;;;;;4068847;29;20055;-57
2023/08/21 10:14:36;;;;;;;10.07;1.60;;;24.90;90.80;;;;;;4068630;29;20048;-58
2023/08/21 10:16:38;;;;;;;4.60;1.30;;;24.90;90.60;;;;;;4069472;29;20059;-58
2023/08/21 10:18:44;;;;;;;6.82;1.90;;;24.90;90.90;;;;;;4069524;29;20439;-58
2023/08/21 10:20:47;;;;;;;5.80;2.50;;;25.00;90.90;;;;;;4069528;29;20106;-58
2023/08/21 10:22:53;;;;;;;8.55;2.42;;;25.00;91.00;;;;;;4069298;29;20051;-58
2023/08/21 10:25:00;;;;;;;6.43;2.13;;;25.10;90.90;;;;;;4068684;29;20059;-58
2023/08/21 10:27:03;;;;;;;7.50;2.42;;;25.10;90.60;;;;;;4068709;29;20052;-57
2023/08/21 10:29:07;;;;;;;6.10;2.00;;;25.10;90.90;;;;;;4068948;29;20044;-57
2023/08/21 10:31:28;;;;;;;10.15;2.10;;;25.10;91.00;;;;;;4069269;29;20436;-57
2023/08/21 10:33:46;;;;;;;7.03;1.83;;;25.20;90.90;;;;;;4069053;29;20052;-58
2023/08/21 10:35:48;;;;;;;6.72;1.85;;;25.30;90.90;;;;;;4067106;29;20048;-58
2023/08/21 10:38:11;;;;;;;9.93;1.85;;;25.30;91.00;;;;;;4068936;29;20221;-57